createdAt,value
2018-03-16T00:00:25.320Z,6.40
2018-03-16T00:02:54.379Z,6.40
2018-03-16T00:05:23.622Z,6.40
2018-03-16T00:07:52.675Z,6.40
2018-03-16T00:10:21.758Z,6.40
2018-03-16T00:12:50.802Z,6.30
2018-03-16T00:15:19.899Z,6.40
2018-03-16T00:17:48.953Z,6.30
2018-03-16T00:20:17.986Z,6.30
2018-03-16T00:22:47.058Z,6.30
2018-03-16T00:25:16.978Z,6.30
2018-03-16T00:27:46.795Z,6.30
2018-03-16T00:30:16.642Z,6.30
2018-03-16T00:32:45.688Z,6.30
2018-03-16T00:35:14.776Z,6.30
2018-03-16T00:37:43.844Z,6.30
2018-03-16T00:40:12.881Z,6.30
2018-03-16T00:42:42.750Z,6.30
2018-03-16T00:45:11.833Z,6.30
2018-03-16T00:47:40.873Z,6.30
2018-03-16T00:50:10.720Z,6.30
2018-03-16T00:52:39.764Z,6.30
2018-03-16T00:55:08.829Z,6.40
2018-03-16T00:57:37.903Z,6.30
2018-03-16T01:00:06.953Z,6.30
2018-03-16T01:02:36.002Z,6.30
2018-03-16T01:05:05.062Z,6.30
2018-03-16T01:07:34.109Z,6.30
2018-03-16T01:10:03.180Z,6.30
2018-03-16T01:12:32.241Z,6.30
2018-03-16T01:15:02.099Z,6.20
2018-03-16T01:17:31.111Z,6.20
2018-03-16T01:20:00.177Z,6.20
2018-03-16T01:22:29.300Z,6.20
2018-03-16T01:24:58.329Z,6.10
2018-03-16T01:27:28.209Z,6.10
2018-03-16T01:29:57.261Z,6.10
2018-03-16T01:32:26.324Z,6.20
2018-03-16T01:34:56.164Z,6.10
2018-03-16T01:37:25.972Z,6.10
2018-03-16T01:39:55.026Z,6.10
2018-03-16T01:42:24.125Z,6.10
2018-03-16T01:44:53.163Z,6.10
2018-03-16T01:47:22.215Z,6.10
2018-03-16T01:49:51.278Z,6.10
2018-03-16T01:52:20.322Z,6.00
2018-03-16T01:54:50.153Z,6.10
2018-03-16T01:57:19.204Z,6.00
2018-03-16T01:59:48.262Z,6.10
2018-03-16T02:02:17.456Z,6.10
2018-03-16T02:04:46.525Z,6.00
2018-03-16T02:07:16.317Z,6.00
2018-03-16T02:09:45.351Z,6.00
2018-03-16T02:12:14.423Z,6.00
2018-03-16T02:14:44.223Z,6.00
2018-03-16T02:17:14.051Z,6.00
2018-03-16T02:19:43.978Z,6.00
2018-03-16T02:22:13.012Z,6.00
2018-03-16T02:24:42.039Z,6.00
2018-03-16T02:27:11.257Z,6.00
2018-03-16T02:29:41.047Z,6.00
2018-03-16T02:32:10.902Z,6.00
2018-03-16T02:34:39.940Z,6.00
2018-03-16T02:37:08.964Z,6.10
2018-03-16T02:39:38.080Z,6.00
2018-03-16T02:42:07.124Z,6.00
2018-03-16T02:44:36.162Z,6.00
2018-03-16T02:47:05.243Z,6.00
2018-03-16T02:49:35.998Z,6.00
2018-03-16T02:52:05.071Z,6.10
2018-03-16T02:54:34.126Z,6.10
2018-03-16T02:57:03.201Z,6.10
2018-03-16T02:59:32.234Z,6.10
2018-03-16T03:02:02.062Z,6.10
2018-03-16T03:04:31.878Z,6.00
2018-03-16T03:07:00.946Z,6.00
2018-03-16T03:09:29.971Z,6.00
2018-03-16T03:11:59.002Z,6.00
2018-03-16T03:14:28.063Z,6.10
2018-03-16T03:16:57.101Z,6.00
2018-03-16T03:19:26.156Z,6.00
2018-03-16T03:21:55.201Z,6.00
2018-03-16T03:24:24.266Z,6.00
2018-03-16T03:26:53.338Z,6.00
2018-03-16T03:29:22.421Z,6.00
2018-03-16T03:31:52.265Z,6.00
2018-03-16T03:34:21.306Z,6.00
2018-03-16T03:36:51.129Z,6.00
2018-03-16T03:39:21.006Z,6.10
2018-03-16T03:41:50.081Z,6.10
2018-03-16T03:44:19.119Z,6.10
2018-03-16T03:46:48.237Z,6.10
2018-03-16T03:49:17.269Z,6.10
2018-03-16T03:51:46.317Z,6.10
2018-03-16T03:54:15.392Z,6.10
2018-03-16T03:56:44.467Z,6.00
2018-03-16T03:59:13.871Z,6.00
2018-03-16T04:01:42.969Z,5.90
2018-03-16T04:04:11.983Z,5.90
2018-03-16T04:06:41.056Z,5.90
2018-03-16T04:09:10.085Z,5.90
2018-03-16T04:11:39.161Z,6.00
2018-03-16T04:14:08.215Z,6.00
2018-03-16T04:16:37.252Z,6.00
2018-03-16T04:19:06.317Z,6.00
2018-03-16T04:21:35.349Z,6.00
2018-03-16T04:24:05.190Z,6.10
2018-03-16T04:26:34.261Z,6.00
2018-03-16T04:29:04.068Z,6.10
2018-03-16T04:31:33.905Z,6.10
2018-03-16T04:34:02.973Z,6.10
2018-03-16T04:36:32.804Z,6.10
2018-03-16T04:39:01.907Z,6.00
2018-03-16T04:41:30.966Z,6.00
2018-03-16T04:44:00.083Z,6.00
2018-03-16T04:46:29.907Z,6.10
2018-03-16T04:48:58.957Z,6.00
2018-03-16T04:51:28.053Z,6.00
2018-03-16T04:53:57.080Z,6.00
2018-03-16T04:56:26.140Z,6.00
2018-03-16T04:58:55.229Z,6.00
2018-03-16T05:01:24.273Z,6.00
2018-03-16T05:03:53.352Z,6.10
2018-03-16T05:06:23.144Z,6.00
2018-03-16T05:08:52.981Z,6.00
2018-03-16T05:11:22.786Z,5.90
2018-03-16T05:13:52.854Z,6.00
2018-03-16T05:16:21.918Z,5.90
2018-03-16T05:18:50.977Z,5.90
2018-03-16T05:21:20.043Z,6.00
2018-03-16T05:23:49.109Z,5.90
2018-03-16T05:26:18.168Z,5.90
2018-03-16T05:28:47.191Z,5.90
2018-03-16T05:31:16.309Z,5.90
2018-03-16T05:33:45.438Z,5.90
2018-03-16T05:36:14.545Z,5.90
2018-03-16T05:38:43.594Z,6.00
2018-03-16T05:41:12.678Z,6.00
2018-03-16T05:43:41.759Z,6.00
2018-03-16T05:46:10.842Z,6.00
2018-03-16T05:48:40.645Z,6.00
2018-03-16T05:51:10.479Z,6.00
2018-03-16T05:53:39.513Z,6.00
2018-03-16T05:56:09.888Z,6.00
2018-03-16T05:58:38.951Z,6.00
2018-03-16T06:01:08.013Z,6.00
2018-03-16T06:03:37.070Z,6.00
2018-03-16T06:06:06.105Z,6.00
2018-03-16T06:08:36.209Z,6.00
2018-03-16T06:11:06.019Z,6.00
2018-03-16T06:13:35.150Z,6.00
2018-03-16T06:16:04.923Z,6.00
2018-03-16T06:18:34.015Z,6.00
2018-03-16T06:21:03.063Z,6.00
2018-03-16T06:23:32.105Z,6.00
2018-03-16T06:26:01.189Z,6.00
2018-03-16T06:28:31.449Z,6.00
2018-03-16T06:31:00.519Z,6.00
2018-03-16T06:33:29.596Z,6.00
2018-03-16T06:35:58.638Z,6.00
2018-03-16T06:38:32.968Z,6.00
2018-03-16T06:41:01.997Z,6.00
2018-03-16T06:43:31.061Z,6.00
2018-03-16T06:46:00.081Z,6.00
2018-03-16T06:48:29.145Z,6.00
2018-03-16T06:50:58.174Z,5.90
2018-03-16T06:53:27.226Z,6.00
2018-03-16T06:55:56.254Z,6.00
2018-03-16T06:58:26.386Z,6.00
2018-03-16T07:00:55.421Z,6.00
2018-03-16T07:03:24.455Z,6.00
2018-03-16T07:05:53.582Z,6.00
2018-03-16T07:08:22.605Z,6.00
2018-03-16T07:10:51.651Z,6.00
2018-03-16T07:13:21.497Z,5.90
2018-03-16T07:15:50.520Z,5.90
2018-03-16T07:18:19.541Z,5.90
2018-03-16T07:20:49.398Z,5.90
2018-03-16T07:23:18.430Z,5.90
2018-03-16T07:25:47.476Z,5.90
2018-03-16T07:28:16.557Z,5.80
2018-03-16T07:30:45.607Z,5.90
2018-03-16T07:33:14.625Z,5.80
2018-03-16T07:35:44.481Z,5.80
2018-03-16T07:38:13.511Z,5.80
2018-03-16T07:40:42.545Z,5.80
2018-03-16T07:43:11.624Z,5.80
2018-03-16T07:45:46.126Z,5.90
2018-03-16T07:48:15.999Z,6.00
2018-03-16T07:50:45.022Z,6.00
2018-03-16T07:53:14.049Z,6.10
2018-03-16T07:55:43.266Z,6.10
2018-03-16T07:58:12.382Z,6.00
2018-03-16T08:00:41.461Z,6.00
2018-03-16T08:03:10.534Z,6.00
2018-03-16T08:05:39.564Z,6.00
2018-03-16T08:08:08.627Z,6.00
2018-03-16T08:10:38.527Z,6.00
2018-03-16T08:13:08.330Z,6.00
2018-03-16T08:15:37.344Z,6.00
2018-03-16T08:18:06.467Z,6.00
2018-03-16T08:20:35.490Z,6.00
2018-03-16T08:23:04.522Z,5.90
2018-03-16T08:25:33.661Z,6.00
2018-03-16T08:28:02.722Z,6.00
2018-03-16T08:30:32.489Z,6.00
2018-03-16T08:33:01.553Z,6.00
2018-03-16T08:35:30.605Z,6.00
2018-03-16T08:38:00.424Z,6.10
2018-03-16T08:40:29.449Z,6.00
2018-03-16T08:42:58.507Z,6.10
2018-03-16T08:45:28.302Z,6.00
2018-03-16T08:47:58.123Z,6.00
2018-03-16T08:50:27.953Z,6.00
2018-03-16T08:52:57.004Z,6.00
2018-03-16T08:55:26.031Z,6.00
2018-03-16T08:57:55.095Z,6.00
2018-03-16T09:00:24.149Z,6.00
2018-03-16T09:02:53.213Z,6.00
2018-03-16T09:05:22.229Z,5.90
2018-03-16T09:07:52.112Z,5.80
2018-03-16T09:10:21.932Z,5.80
2018-03-16T09:12:51.086Z,5.80
2018-03-16T09:15:20.121Z,5.80
2018-03-16T09:17:49.906Z,5.70
2018-03-16T09:20:19.054Z,5.70
2018-03-16T09:22:48.083Z,5.70
2018-03-16T09:25:17.107Z,5.70
2018-03-16T09:27:47.002Z,5.70
2018-03-16T09:30:16.000Z,5.70
2018-03-16T09:32:45.026Z,5.70
2018-03-16T09:35:14.170Z,5.60
2018-03-16T09:37:43.173Z,5.60
2018-03-16T09:40:12.215Z,5.70
2018-03-16T09:42:41.266Z,5.70
2018-03-16T09:45:10.308Z,5.70
2018-03-16T09:47:39.315Z,5.70
2018-03-16T09:50:08.382Z,5.70
2018-03-16T09:52:37.413Z,5.70
2018-03-16T09:55:24.334Z,5.70
2018-03-16T09:57:53.457Z,5.70
2018-03-16T10:00:22.504Z,5.70
2018-03-16T10:02:51.583Z,5.80
2018-03-16T10:05:20.605Z,5.80
2018-03-16T10:07:49.629Z,5.80
2018-03-16T10:10:18.697Z,5.80
2018-03-16T10:12:47.735Z,5.80
2018-03-16T10:15:17.534Z,5.90
2018-03-16T10:17:46.601Z,5.90
2018-03-16T10:20:15.632Z,5.90
2018-03-16T10:22:45.572Z,5.80
2018-03-16T10:25:14.600Z,5.80
2018-03-16T10:27:43.627Z,5.80
2018-03-16T10:30:12.812Z,5.80
2018-03-16T10:32:41.826Z,5.80
2018-03-16T10:35:11.700Z,5.80
2018-03-16T10:37:40.751Z,5.80
2018-03-16T10:40:09.770Z,5.70
2018-03-16T10:42:38.820Z,5.80
2018-03-16T10:45:08.641Z,5.70
2018-03-16T10:47:38.460Z,5.70
2018-03-16T10:50:07.510Z,5.70
2018-03-16T10:52:36.574Z,5.70
2018-03-16T10:55:05.605Z,5.70
2018-03-16T10:57:34.680Z,5.70
2018-03-16T11:00:03.714Z,5.70
2018-03-16T11:02:38.986Z,5.80
2018-03-16T11:18:33.985Z,6.00
2018-03-16T11:21:03.011Z,6.10
2018-03-16T11:23:32.097Z,6.10
2018-03-16T11:26:01.116Z,6.10
2018-03-16T11:28:30.161Z,6.10
2018-03-16T11:30:59.193Z,6.10
2018-03-16T11:33:28.249Z,6.10
2018-03-16T11:35:57.288Z,6.10
2018-03-16T11:38:26.340Z,6.20
2018-03-16T11:40:55.383Z,6.30
2018-03-16T11:43:24.428Z,6.30
2018-03-16T11:45:53.476Z,6.40
2018-03-16T11:48:22.520Z,6.30
2018-03-16T11:50:51.553Z,6.30
2018-03-16T11:53:21.428Z,6.40
2018-03-16T11:55:51.686Z,6.40
2018-03-16T11:58:20.722Z,6.40
2018-03-16T12:00:49.874Z,6.40
2018-03-16T12:03:18.888Z,6.50
2018-03-16T12:05:48.061Z,6.50
2018-03-16T12:08:17.155Z,6.40
2018-03-16T12:10:46.204Z,6.40
2018-03-16T12:13:16.645Z,6.40
2018-03-16T12:15:45.719Z,6.30
2018-03-16T12:18:14.766Z,6.30
2018-03-16T12:20:43.789Z,6.30
2018-03-16T12:23:12.952Z,6.30
2018-03-16T12:25:41.979Z,6.30
2018-03-16T12:28:11.033Z,6.30
2018-03-16T12:30:40.226Z,6.20
2018-03-16T12:33:09.243Z,6.10
2018-03-16T12:35:39.049Z,6.20
2018-03-16T12:38:08.122Z,6.10
2018-03-16T12:40:37.150Z,6.20
2018-03-16T12:43:06.958Z,6.30
2018-03-16T12:45:36.005Z,6.30
2018-03-16T12:48:05.055Z,6.30
2018-03-16T12:50:34.856Z,6.30
2018-03-16T12:53:04.658Z,6.40
2018-03-16T12:55:33.754Z,6.40
2018-03-16T12:58:02.818Z,6.40
2018-03-16T13:00:31.855Z,6.40
2018-03-16T13:03:01.689Z,6.40
2018-03-16T13:05:30.758Z,6.40
2018-03-16T13:07:59.779Z,6.50
2018-03-16T13:10:28.829Z,6.50
2018-03-16T13:12:57.899Z,6.40
2018-03-16T13:15:26.958Z,6.50
2018-03-16T13:17:56.771Z,6.40
2018-03-16T13:20:25.839Z,6.40
2018-03-16T13:22:54.912Z,6.40
2018-03-16T13:25:23.918Z,6.40
2018-03-16T13:27:52.960Z,6.40
2018-03-16T13:30:21.994Z,6.40
2018-03-16T13:32:51.020Z,6.40
2018-03-16T13:35:20.855Z,6.40
2018-03-16T13:37:49.912Z,6.40
2018-03-16T13:40:18.974Z,6.30
2018-03-16T13:42:48.025Z,6.30
2018-03-16T13:45:17.065Z,6.30
2018-03-16T13:47:46.110Z,6.40
2018-03-16T13:50:15.147Z,6.40
2018-03-16T13:52:44.294Z,6.40
2018-03-16T13:55:14.095Z,6.30
2018-03-16T13:57:43.962Z,6.30
2018-03-16T14:00:13.029Z,6.30
2018-03-16T14:02:42.112Z,6.30
2018-03-16T14:05:11.925Z,6.30
2018-03-16T14:07:40.985Z,6.30
2018-03-16T14:10:10.015Z,6.40
2018-03-16T14:12:39.078Z,6.30
2018-03-16T14:15:08.130Z,6.40
2018-03-16T14:17:37.190Z,6.40
2018-03-16T14:20:07.025Z,6.40
2018-03-16T14:22:36.096Z,6.40
2018-03-16T14:25:05.135Z,6.40
2018-03-16T14:27:34.164Z,6.40
2018-03-16T14:30:03.245Z,6.30
2018-03-16T14:32:32.303Z,6.30
2018-03-16T14:35:01.361Z,6.30
2018-03-16T14:37:31.203Z,6.30
2018-03-16T14:40:00.354Z,6.30
2018-03-16T14:42:29.407Z,6.30
2018-03-16T14:44:58.406Z,6.30
2018-03-16T14:47:27.477Z,6.40
2018-03-16T14:49:56.514Z,6.30
2018-03-16T14:52:25.889Z,6.30
2018-03-16T14:54:54.976Z,6.30
2018-03-16T14:57:24.757Z,6.30
2018-03-16T14:59:54.554Z,6.30
2018-03-16T15:02:23.605Z,6.30
2018-03-16T15:04:52.645Z,6.20
2018-03-16T15:07:21.752Z,6.30
2018-03-16T15:09:51.572Z,6.10
2018-03-16T15:12:21.369Z,6.10
2018-03-16T15:14:51.185Z,6.10
2018-03-16T15:17:20.985Z,6.10
2018-03-16T15:19:50.836Z,6.10
2018-03-16T15:22:19.861Z,6.10
2018-03-16T15:24:48.975Z,6.00
2018-03-16T15:27:18.007Z,6.00
2018-03-16T15:29:47.033Z,5.90
2018-03-16T15:32:16.148Z,5.90
2018-03-16T15:34:45.606Z,5.90
2018-03-16T15:37:14.762Z,5.90
2018-03-16T15:39:43.791Z,5.90
2018-03-16T15:42:13.601Z,5.90
2018-03-16T15:44:42.668Z,5.80
2018-03-16T15:47:11.710Z,5.90
2018-03-16T15:49:40.779Z,5.90
2018-03-16T15:52:10.601Z,5.80
2018-03-16T15:54:39.649Z,5.80
2018-03-16T15:57:08.710Z,5.90
2018-03-16T15:59:37.766Z,5.90
2018-03-16T16:02:07.592Z,5.80
2018-03-16T16:04:36.662Z,5.80
2018-03-16T16:07:05.682Z,5.80
2018-03-16T16:09:34.721Z,5.80
2018-03-16T16:12:03.771Z,5.90
2018-03-16T16:14:32.874Z,5.80
2018-03-16T16:17:01.913Z,5.80
2018-03-16T16:19:30.967Z,5.70
2018-03-16T16:22:00.029Z,5.80
2018-03-16T16:24:29.860Z,5.80
2018-03-16T16:26:58.900Z,5.80
2018-03-16T16:29:27.984Z,5.80
2018-03-16T16:31:57.031Z,5.80
2018-03-16T16:34:26.103Z,5.70
2018-03-16T16:36:55.135Z,5.70
2018-03-16T16:39:24.236Z,5.70
2018-03-16T16:41:53.283Z,5.70
2018-03-16T16:44:22.375Z,5.70
2018-03-16T16:46:51.410Z,5.70
2018-03-16T16:49:20.462Z,5.70
2018-03-16T16:51:49.598Z,5.60
2018-03-16T16:54:18.581Z,5.60
2018-03-16T16:56:48.415Z,5.60
2018-03-16T16:59:17.468Z,5.60
2018-03-16T17:01:46.540Z,5.60
2018-03-16T17:04:15.580Z,5.60
2018-03-16T17:06:45.413Z,5.50
2018-03-16T17:09:14.523Z,5.50
2018-03-16T17:11:43.569Z,5.50
2018-03-16T17:14:13.693Z,5.50
2018-03-16T17:16:43.526Z,5.50
2018-03-16T17:19:13.338Z,5.50
2018-03-16T17:21:42.366Z,5.50
2018-03-16T17:24:11.422Z,5.40
2018-03-16T17:26:40.482Z,5.40
2018-03-16T17:29:09.550Z,5.40
2018-03-16T17:31:38.599Z,5.40
2018-03-16T17:34:07.674Z,5.40
2018-03-16T17:36:37.533Z,5.40
2018-03-16T17:39:06.574Z,5.30
2018-03-16T17:41:35.640Z,5.40
2018-03-16T17:44:04.682Z,5.40
2018-03-16T17:46:33.769Z,5.40
2018-03-16T17:49:03.660Z,5.40
2018-03-16T17:51:32.773Z,5.40
2018-03-16T17:54:01.890Z,5.40
2018-03-16T17:56:31.704Z,5.40
2018-03-16T17:59:00.790Z,5.40
2018-03-16T18:01:30.736Z,5.40
2018-03-16T18:03:59.792Z,5.30
2018-03-16T18:06:29.621Z,5.30
2018-03-16T18:08:58.775Z,5.30
2018-03-16T18:11:27.970Z,5.30
2018-03-16T18:13:57.141Z,5.30
2018-03-16T18:16:26.187Z,5.30
2018-03-16T18:18:55.268Z,5.30
2018-03-16T18:21:24.482Z,5.30
2018-03-16T18:23:54.376Z,5.30
2018-03-16T18:26:23.430Z,5.30
2018-03-16T18:28:52.724Z,5.30
2018-03-16T18:31:21.847Z,5.30
2018-03-16T18:33:51.023Z,5.30
2018-03-16T18:36:20.275Z,5.30
2018-03-16T18:38:49.426Z,5.30
2018-03-16T18:41:18.613Z,5.20
2018-03-16T18:43:47.754Z,5.30
2018-03-16T18:46:16.869Z,5.30
2018-03-16T18:48:46.792Z,5.30
2018-03-16T18:51:15.993Z,5.20
2018-03-16T18:53:45.925Z,5.20
2018-03-16T18:56:15.069Z,5.20
2018-03-16T18:58:44.302Z,5.20
2018-03-16T19:01:13.430Z,5.20
2018-03-16T19:03:42.772Z,5.20
2018-03-16T19:06:12.069Z,5.20
2018-03-16T19:08:41.272Z,5.20
2018-03-16T19:11:10.605Z,5.20
2018-03-16T19:13:40.685Z,5.20
2018-03-16T19:16:09.899Z,5.20
2018-03-16T19:18:39.291Z,5.20
2018-03-16T19:21:08.620Z,5.20
2018-03-16T19:23:38.713Z,5.20
2018-03-16T19:26:08.016Z,5.20
2018-03-16T19:28:37.345Z,5.20
2018-03-16T19:31:07.418Z,5.10
2018-03-16T19:33:36.750Z,5.10
2018-03-16T19:36:06.175Z,5.10
2018-03-16T19:38:35.477Z,5.20
2018-03-16T19:41:04.958Z,5.20
2018-03-16T19:43:35.030Z,5.20
2018-03-16T19:46:04.334Z,5.20
2018-03-16T19:48:33.584Z,5.20
2018-03-16T19:51:03.650Z,5.20
2018-03-16T19:53:33.023Z,5.20
2018-03-16T19:56:02.363Z,5.20
2018-03-16T19:58:31.686Z,5.10
2018-03-16T20:01:01.102Z,5.10
2018-03-16T20:03:31.120Z,5.10
2018-03-16T20:06:01.156Z,5.10
2018-03-16T20:08:30.446Z,5.10
2018-03-16T20:11:00.473Z,5.10
2018-03-16T20:13:29.795Z,5.10
2018-03-16T20:16:00.582Z,5.10
2018-03-16T20:18:30.651Z,5.10
2018-03-16T20:20:59.893Z,5.10
2018-03-16T20:23:29.143Z,5.10
2018-03-16T20:25:58.413Z,5.10
2018-03-16T20:28:27.637Z,5.10
2018-03-16T20:30:58.753Z,5.10
2018-03-16T20:33:28.558Z,5.10
2018-03-16T20:35:57.599Z,5.10
2018-03-16T20:38:26.695Z,5.10
2018-03-16T20:40:55.768Z,5.10
2018-03-16T20:43:24.812Z,5.00
2018-03-16T20:45:53.870Z,5.00
2018-03-16T20:48:22.972Z,5.00
2018-03-16T20:50:52.043Z,5.00
2018-03-16T20:53:21.090Z,5.00
2018-03-16T20:55:50.164Z,5.00
2018-03-16T20:58:19.301Z,5.00
2018-03-16T21:00:49.132Z,4.90
2018-03-16T21:03:18.202Z,4.90
2018-03-16T21:05:51.554Z,4.90
2018-03-16T21:08:20.570Z,4.90
2018-03-16T21:10:49.650Z,4.90
2018-03-16T21:13:18.760Z,4.90
2018-03-16T21:15:47.913Z,4.90
2018-03-16T21:18:17.801Z,4.90
2018-03-16T21:20:46.887Z,4.80
2018-03-16T21:23:16.707Z,4.80
2018-03-16T21:25:45.749Z,4.70
2018-03-16T21:28:14.803Z,4.80
2018-03-16T21:30:43.842Z,4.80
2018-03-16T21:33:12.973Z,4.80
2018-03-16T21:35:42.854Z,4.80
2018-03-16T21:38:11.912Z,4.80
2018-03-16T21:40:41.004Z,4.80
2018-03-16T21:43:10.059Z,4.80
2018-03-16T21:45:39.866Z,4.70
2018-03-16T21:48:09.730Z,4.70
2018-03-16T21:50:38.833Z,4.70
2018-03-16T21:53:07.862Z,4.70
2018-03-16T21:55:37.087Z,4.70
2018-03-16T21:58:06.178Z,4.70
2018-03-16T22:00:35.222Z,4.70
2018-03-16T22:03:04.291Z,4.60
2018-03-16T22:05:33.330Z,4.60
2018-03-16T22:08:02.372Z,4.60
2018-03-16T22:10:31.442Z,4.60
2018-03-16T22:13:01.538Z,4.70
2018-03-16T22:15:30.634Z,4.60
2018-03-16T22:17:59.730Z,4.60
2018-03-16T22:20:28.798Z,4.60
2018-03-16T22:22:57.864Z,4.60
2018-03-16T22:25:26.929Z,4.60
2018-03-16T22:27:56.751Z,4.60
2018-03-16T22:30:26.570Z,4.60
2018-03-16T22:32:55.638Z,4.60
2018-03-16T22:35:24.668Z,4.60
2018-03-16T22:37:53.730Z,4.60
2018-03-16T22:40:23.601Z,4.50
2018-03-16T22:42:52.777Z,4.50
2018-03-16T22:45:21.815Z,4.50
2018-03-16T22:47:50.854Z,4.40
2018-03-16T22:50:19.925Z,4.50
2018-03-16T22:52:49.037Z,4.50
2018-03-16T22:55:18.846Z,4.50
2018-03-16T22:57:48.831Z,4.60
2018-03-16T23:00:19.584Z,4.60
2018-03-16T23:02:48.623Z,4.70
2018-03-16T23:05:17.657Z,4.80
2018-03-16T23:07:46.710Z,5.00
2018-03-16T23:10:15.865Z,5.00
2018-03-16T23:12:44.929Z,5.10
2018-03-16T23:15:13.950Z,5.10
2018-03-16T23:17:43.036Z,5.10
2018-03-16T23:20:12.062Z,5.10
2018-03-16T23:22:41.099Z,5.10
2018-03-16T23:25:10.952Z,5.20
2018-03-16T23:27:39.992Z,5.20
2018-03-16T23:30:09.849Z,5.10
2018-03-16T23:32:39.711Z,5.10
2018-03-16T23:35:08.756Z,5.10
2018-03-16T23:37:37.792Z,5.10
2018-03-16T23:40:06.949Z,5.10
2018-03-16T23:42:36.761Z,4.90
2018-03-16T23:45:06.610Z,4.80
2018-03-16T23:47:35.663Z,4.70
2018-03-16T23:50:04.709Z,4.60
2018-03-16T23:52:33.861Z,4.60
2018-03-16T23:55:03.676Z,4.40
2018-03-16T23:57:33.482Z,4.40
